Time;durP1;ratioP1;P1;durP2;ratioP2;P2;SDS_P1;SDS_P2;PMS_P1;PMS_P2;Temp;Humidity;BMP_temperature;BMP_pressure;BME280_temperature;BME280_humidity;BME280_pressure;Samples;Min_cycle;Max_cycle;Signal;HPM_P1;HPM_P2
2023/04/25 00:00:25;;;;;;;7.70;6.88;;;9.20;99.90;;;;;;4938272;29;20185;-74
2023/04/25 00:02:51;;;;;;;7.68;6.95;;;9.20;99.90;;;;;;4937953;29;20181;-74
2023/04/25 00:05:17;;;;;;;7.47;6.88;;;9.20;99.90;;;;;;4938372;29;20185;-74
2023/04/25 00:07:42;;;;;;;7.78;6.95;;;9.20;99.90;;;;;;4955121;28;20201;-74
2023/04/25 00:10:10;;;;;;;8.07;7.18;;;9.20;99.90;;;;;;4937888;29;20297;-74
2023/04/25 00:12:36;;;;;;;8.60;7.05;;;9.20;99.90;;;;;;4940942;29;20228;-74
2023/04/25 00:15:03;;;;;;;7.75;7.03;;;9.30;99.90;;;;;;4941820;29;20186;-74
2023/04/25 00:17:29;;;;;;;7.78;7.18;;;9.20;99.90;;;;;;4941709;29;20225;-74
2023/04/25 00:19:55;;;;;;;9.80;7.40;;;9.20;99.90;;;;;;4942536;29;20197;-74
2023/04/25 00:22:21;;;;;;;8.30;7.32;;;9.20;99.90;;;;;;4941665;29;20195;-74
2023/04/25 00:24:47;;;;;;;7.72;7.03;;;9.20;99.90;;;;;;4941679;29;20273;-74
2023/04/25 00:27:12;;;;;;;9.23;7.45;;;9.30;99.90;;;;;;4941438;29;20731;-74
2023/04/25 00:29:38;;;;;;;7.55;6.85;;;9.30;99.90;;;;;;4941533;29;20236;-74
2023/04/25 00:32:04;;;;;;;7.57;6.88;;;9.30;99.90;;;;;;4941855;29;20281;-74
2023/04/25 00:34:29;;;;;;;8.45;6.90;;;9.30;99.90;;;;;;4941530;29;20620;-74
2023/04/25 00:36:55;;;;;;;9.20;7.40;;;9.20;99.90;;;;;;4958533;28;20204;-75
2023/04/25 00:39:20;;;;;;;7.65;6.95;;;9.20;99.90;;;;;;4941349;29;20243;-74
2023/04/25 00:41:47;;;;;;;8.07;7.38;;;9.20;99.90;;;;;;4941403;29;20204;-74
2023/04/25 00:44:13;;;;;;;7.93;7.18;;;9.30;99.90;;;;;;4941272;29;20181;-74
2023/04/25 00:46:39;;;;;;;7.95;7.25;;;9.30;99.90;;;;;;4958388;28;20205;-74
2023/04/25 00:49:04;;;;;;;9.10;7.20;;;9.30;99.90;;;;;;4941074;29;20658;-74
2023/04/25 00:51:32;;;;;;;10.32;7.50;;;9.20;99.90;;;;;;4941484;29;20178;-74
2023/04/25 00:53:58;;;;;;;8.88;7.97;;;9.30;99.90;;;;;;4941030;29;20205;-74
2023/04/25 00:56:23;;;;;;;8.52;7.78;;;9.30;99.90;;;;;;4941497;29;20656;-74
2023/04/25 00:58:51;;;;;;;8.40;7.70;;;9.20;99.90;;;;;;4941063;29;20182;-74
2023/04/25 05:15:33;;;;;;;;;;;;;;;;;;;;;
2023/04/25 05:35:31;;;;;;;9.60;8.63;;;8.50;99.90;;;;;;4858282;23;20254;-86
2023/04/25 05:37:56;;;;;;;11.45;9.02;;;8.30;99.90;;;;;;4940573;29;20201;-86
2023/04/25 05:40:22;;;;;;;9.23;8.38;;;8.30;99.90;;;;;;4941625;29;20264;-86
2023/04/25 05:42:51;;;;;;;10.18;8.63;;;8.40;99.90;;;;;;4958880;29;20177;-86
2023/04/25 05:45:17;;;;;;;11.00;9.27;;;8.30;99.90;;;;;;4940840;29;20177;-86
2023/04/25 05:47:43;;;;;;;8.02;7.18;;;8.30;99.90;;;;;;4941894;29;20181;-89
2023/04/25 05:50:11;;;;;;;8.48;6.65;;;8.40;99.90;;;;;;4942954;29;20217;-88
2023/04/25 05:52:37;;;;;;;12.57;6.85;;;8.30;99.90;;;;;;4940989;29;20186;-86
2023/04/25 05:55:03;;;;;;;8.05;6.22;;;8.20;99.90;;;;;;4940776;29;20185;-86
2023/04/25 05:57:28;;;;;;;9.02;5.63;;;8.20;99.90;;;;;;4940236;29;20185;-86
2023/04/25 05:59:57;;;;;;;8.52;5.22;;;8.20;99.90;;;;;;4939901;29;20685;-86
2023/04/25 06:02:23;;;;;;;7.78;6.57;;;8.00;99.90;;;;;;4940222;29;20186;-86
2023/04/25 06:04:51;;;;;;;9.70;8.32;;;7.90;99.90;;;;;;4941194;29;20205;-86
2023/04/25 06:07:16;;;;;;;9.05;5.40;;;7.90;99.90;;;;;;4940608;29;20218;-86
2023/04/25 06:09:43;;;;;;;8.68;4.72;;;8.00;99.90;;;;;;4940594;29;20245;-86
2023/04/25 06:12:08;;;;;;;7.85;5.90;;;8.10;99.90;;;;;;4958218;29;20185;-86
2023/04/25 06:14:34;;;;;;;7.78;4.72;;;8.00;99.90;;;;;;4957776;29;20184;-86
2023/04/25 06:17:06;;;;;;;9.85;4.88;;;8.10;99.90;;;;;;4957408;29;20188;-86
2023/04/25 06:19:40;;;;;;;7.05;4.22;;;8.20;99.90;;;;;;4940085;29;20261;-86
2023/04/25 06:22:10;;;;;;;9.02;5.00;;;8.10;99.90;;;;;;4941917;29;20172;-86
2023/04/25 06:24:35;;;;;;;6.40;4.60;;;8.10;99.90;;;;;;4957922;29;20196;-86
2023/04/25 06:27:01;;;;;;;7.30;4.38;;;8.10;99.90;;;;;;4940162;29;20189;-86
2023/04/25 06:29:27;;;;;;;9.25;4.72;;;8.10;99.90;;;;;;4940141;29;20611;-86
2023/04/25 06:31:53;;;;;;;8.05;4.57;;;8.20;99.90;;;;;;4940235;29;20189;-86
2023/04/25 06:34:20;;;;;;;6.65;4.93;;;8.20;99.90;;;;;;4940863;29;20215;-86
2023/04/25 06:36:46;;;;;;;7.15;4.10;;;8.30;99.90;;;;;;4957618;29;20197;-86
2023/04/25 06:39:14;;;;;;;6.57;4.60;;;8.60;99.90;;;;;;4939881;29;20224;-86
2023/04/25 06:41:40;;;;;;;6.57;4.82;;;9.00;99.90;;;;;;4940446;29;20237;-86
2023/04/25 06:44:06;;;;;;;10.95;5.45;;;9.40;99.90;;;;;;4940968;29;20178;-86
2023/04/25 06:46:31;;;;;;;8.55;4.80;;;9.70;99.90;;;;;;4940846;29;20213;-86
2023/04/25 06:49:00;;;;;;;9.35;4.45;;;10.00;99.90;;;;;;4941071;29;20208;-86
2023/04/25 06:51:28;;;;;;;8.55;3.95;;;9.90;99.90;;;;;;4941085;29;20206;-86
2023/04/25 06:53:53;;;;;;;8.73;4.50;;;9.70;99.90;;;;;;4940475;29;20178;-86
2023/04/25 06:56:20;;;;;;;7.95;4.03;;;9.80;99.90;;;;;;4940880;29;20185;-86
2023/04/25 06:58:46;;;;;;;7.53;3.72;;;9.80;99.90;;;;;;4940670;28;20208;-86
2023/04/25 07:01:12;;;;;;;8.60;3.65;;;9.70;99.90;;;;;;4940134;29;20245;-86
2023/04/25 07:03:37;;;;;;;4.47;3.28;;;9.50;99.00;;;;;;4940801;29;20182;-86
2023/04/25 07:06:03;;;;;;;7.93;3.60;;;9.30;99.20;;;;;;4940503;29;20563;-86
2023/04/25 07:08:29;;;;;;;9.05;3.38;;;9.20;98.70;;;;;;4939410;28;20189;-86
2023/04/25 07:10:55;;;;;;;4.80;3.50;;;9.20;99.40;;;;;;4939413;29;20205;-86
2023/04/25 07:13:21;;;;;;;4.53;3.58;;;9.00;99.90;;;;;;4940929;29;20174;-87
2023/04/25 07:15:48;;;;;;;5.88;3.78;;;9.00;99.70;;;;;;4956479;29;20172;-87
2023/04/25 07:18:13;;;;;;;5.72;3.53;;;8.80;99.20;;;;;;4939761;29;20273;-86
2023/04/25 07:20:39;;;;;;;4.40;3.38;;;8.60;99.70;;;;;;4939827;28;20284;-86
2023/04/25 07:23:05;;;;;;;5.85;3.70;;;8.50;99.60;;;;;;4939547;29;20185;-86
2023/04/25 07:25:31;;;;;;;7.18;4.10;;;8.40;99.70;;;;;;4938676;29;20209;-86
2023/04/25 07:27:56;;;;;;;5.00;3.40;;;8.70;99.90;;;;;;4938595;29;20261;-86
2023/04/25 07:30:22;;;;;;;5.70;3.15;;;8.80;99.70;;;;;;4940049;29;20245;-86
2023/04/25 07:32:49;;;;;;;8.18;3.55;;;8.80;99.90;;;;;;4939298;29;20178;-86
2023/04/25 07:35:16;;;;;;;3.45;3.00;;;8.90;99.90;;;;;;4939161;29;20193;-86
2023/04/25 07:37:41;;;;;;;4.05;2.90;;;8.90;99.90;;;;;;4939174;29;20197;-87
2023/04/25 07:40:09;;;;;;;10.63;3.25;;;8.90;99.00;;;;;;4939650;29;20296;-87
2023/04/25 07:42:35;;;;;;;4.05;3.05;;;8.80;99.10;;;;;;4939882;29;20196;-87
2023/04/25 07:45:01;;;;;;;3.30;3.00;;;8.90;99.90;;;;;;4938815;29;20284;-87
2023/04/25 07:47:26;;;;;;;4.60;3.35;;;9.00;99.60;;;;;;4939198;29;20181;-87
2023/04/25 07:49:52;;;;;;;3.80;2.83;;;9.20;99.30;;;;;;4938963;29;20228;-87
2023/04/25 07:52:19;;;;;;;4.35;3.25;;;9.30;99.20;;;;;;4939660;29;20577;-87
2023/04/25 07:54:45;;;;;;;4.53;2.80;;;9.60;98.80;;;;;;4939525;29;20178;-87
2023/04/25 07:57:10;;;;;;;5.10;2.90;;;9.60;98.50;;;;;;4956066;29;20253;-87
2023/04/25 07:59:36;;;;;;;9.50;3.30;;;9.70;98.70;;;;;;4940273;29;20261;-87
2023/04/25 08:02:02;;;;;;;5.97;2.88;;;10.00;98.00;;;;;;4939851;29;20232;-87
2023/04/25 08:04:28;;;;;;;2.80;2.60;;;10.20;97.40;;;;;;4939019;29;20646;-87
2023/04/25 08:06:54;;;;;;;3.95;2.53;;;10.20;97.00;;;;;;4938525;29;20184;-87
2023/04/25 08:09:20;;;;;;;3.63;2.67;;;10.50;97.00;;;;;;4955549;28;20201;-87
2023/04/25 08:11:46;;;;;;;3.85;2.67;;;10.90;96.80;;;;;;4939303;29;20173;-87
2023/04/25 08:14:13;;;;;;;5.00;2.70;;;11.30;96.50;;;;;;4939242;29;20192;-87
2023/04/25 08:16:39;;;;;;;5.53;3.00;;;11.70;95.30;;;;;;4938484;29;20181;-87
2023/04/25 08:19:05;;;;;;;6.88;2.78;;;11.90;94.50;;;;;;4938913;29;20197;-87
2023/04/25 08:21:34;;;;;;;3.20;2.80;;;12.20;94.40;;;;;;4938011;29;20185;-87
2023/04/25 08:24:00;;;;;;;6.55;2.67;;;12.50;94.20;;;;;;4939874;29;20189;-90
2023/04/25 08:26:26;;;;;;;3.28;2.70;;;12.50;94.10;;;;;;4956089;29;20717;-90
2023/04/25 08:28:51;;;;;;;4.07;2.80;;;12.10;93.70;;;;;;4939573;29;20202;-90
2023/04/25 08:31:17;;;;;;;4.00;3.05;;;11.80;94.40;;;;;;4938670;29;20673;-90
2023/04/25 08:33:46;;;;;;;9.73;3.65;;;11.70;94.70;;;;;;4957939;28;20178;-90
2023/04/25 08:36:12;;;;;;;11.82;3.50;;;11.50;94.20;;;;;;4942732;29;20197;-90
2023/04/25 08:38:37;;;;;;;5.78;3.85;;;11.40;94.70;;;;;;4942658;28;20182;-90
2023/04/25 08:41:05;;;;;;;3.47;2.95;;;11.60;95.00;;;;;;4942772;29;20181;-90
2023/04/25 08:43:31;;;;;;;3.67;2.67;;;11.60;94.30;;;;;;4942409;29;20182;-89
2023/04/25 08:46:00;;;;;;;3.20;2.50;;;11.40;94.10;;;;;;4942457;29;20182;-89
2023/04/25 08:48:33;;;;;;;5.78;3.00;;;11.30;94.40;;;;;;4942153;28;20177;-89
2023/04/25 08:51:02;;;;;;;2.67;2.42;;;11.30;94.90;;;;;;4942680;29;20212;-89
2023/04/25 08:53:32;;;;;;;8.35;2.70;;;11.30;94.20;;;;;;4942726;29;20265;-89
2023/04/25 08:56:01;;;;;;;3.05;2.50;;;11.30;94.20;;;;;;4942533;29;20282;-89
2023/04/25 08:58:28;;;;;;;3.75;2.67;;;11.10;94.50;;;;;;4941339;28;20205;-89
2023/04/25 09:00:56;;;;;;;3.80;2.40;;;11.20;94.50;;;;;;4941872;29;20185;-89
2023/04/25 09:03:25;;;;;;;3.60;2.70;;;11.10;94.40;;;;;;4942694;29;20183;-88
2023/04/25 09:05:52;;;;;;;3.50;2.30;;;11.30;94.00;;;;;;4942057;29;20237;-87
2023/04/25 09:08:18;;;;;;;3.20;2.72;;;11.30;93.70;;;;;;4941660;29;20213;-87
2023/04/25 09:10:43;;;;;;;3.20;2.80;;;11.40;94.70;;;;;;4941994;29;20205;-88
2023/04/25 09:13:15;;;;;;;8.45;3.10;;;11.40;94.10;;;;;;4959399;29;20192;-87
2023/04/25 09:15:54;;;;;;;3.60;3.00;;;11.50;94.20;;;;;;4942598;29;20184;-87
2023/04/25 09:18:28;;;;;;;2.88;2.67;;;11.40;93.80;;;;;;4959966;29;20248;-87
2023/04/25 09:20:55;;;;;;;4.78;2.75;;;11.10;94.30;;;;;;4941817;29;20277;-87
2023/04/25 09:23:22;;;;;;;2.95;2.67;;;11.00;94.00;;;;;;4941729;29;20182;-87
2023/04/25 09:25:53;;;;;;;4.55;2.80;;;11.00;93.60;;;;;;4941796;29;20209;-87
2023/04/25 09:28:28;;;;;;;2.65;2.42;;;10.90;93.90;;;;;;4942398;29;20174;-87
2023/04/25 09:30:57;;;;;;;6.60;3.28;;;11.00;93.50;;;;;;4941140;29;20205;-87
2023/04/25 09:33:31;;;;;;;2.90;2.70;;;11.10;93.80;;;;;;4941385;29;20182;-87
2023/04/25 09:36:04;;;;;;;3.03;2.72;;;11.30;93.40;;;;;;4940552;29;20213;-87
2023/04/25 09:38:40;;;;;;;5.55;2.83;;;11.50;93.20;;;;;;4942066;28;20244;-87
2023/04/25 09:41:07;;;;;;;2.70;2.50;;;11.60;93.40;;;;;;4941783;29;20185;-87
2023/04/25 09:43:32;;;;;;;5.38;2.67;;;11.90;93.50;;;;;;4941642;29;20657;-87
2023/04/25 09:46:00;;;;;;;3.08;2.78;;;12.20;93.40;;;;;;4940548;29;20185;-87
2023/04/25 09:48:27;;;;;;;8.75;3.40;;;12.50;91.80;;;;;;4941253;28;20182;-87
2023/04/25 09:51:13;;;;;;;8.35;3.17;;;12.50;91.70;;;;;;4941665;29;20209;-87
2023/04/25 09:53:41;;;;;;;4.13;2.85;;;12.40;91.50;;;;;;4940782;29;20173;-87
2023/04/25 09:56:12;;;;;;;3.08;2.78;;;12.10;91.20;;;;;;4940259;29;20185;-87
2023/04/25 09:58:39;;;;;;;2.78;2.45;;;12.00;91.30;;;;;;4958440;28;20185;-87
2023/04/25 10:01:10;;;;;;;3.03;2.50;;;12.20;91.40;;;;;;4941468;29;20188;-87
2023/04/25 10:03:40;;;;;;;3.00;2.67;;;12.30;90.70;;;;;;4941934;29;20181;-87
2023/04/25 10:06:11;;;;;;;8.85;3.20;;;12.20;91.10;;;;;;4941047;29;20180;-87
2023/04/25 10:08:38;;;;;;;2.92;2.60;;;12.10;91.00;;;;;;4940989;28;20177;-87
2023/04/25 10:11:05;;;;;;;2.97;2.78;;;12.10;90.80;;;;;;4941381;29;20697;-87
2023/04/25 10:13:32;;;;;;;3.03;2.60;;;12.60;91.30;;;;;;4941615;29;20173;-89
2023/04/25 10:15:59;;;;;;;3.85;2.95;;;12.70;90.20;;;;;;4940644;29;20221;-89
2023/04/25 10:18:27;;;;;;;3.20;2.90;;;12.90;90.30;;;;;;4940393;28;20530;-89
2023/04/25 10:20:58;;;;;;;6.63;3.15;;;13.00;90.40;;;;;;4940686;29;20213;-89
2023/04/25 10:23:24;;;;;;;6.68;3.20;;;12.90;90.20;;;;;;4940783;29;20176;-89
2023/04/25 10:25:52;;;;;;;4.30;3.35;;;13.10;90.20;;;;;;4940393;29;20192;-89
2023/04/25 10:28:21;;;;;;;2.92;2.70;;;13.40;88.60;;;;;;4940130;29;20181;-89
2023/04/25 10:31:02;;;;;;;5.15;2.92;;;13.70;86.10;;;;;;4940732;29;20757;-89
2023/04/25 10:33:39;;;;;;;2.80;2.40;;;13.70;84.80;;;;;;4940123;29;20193;-89
2023/04/25 10:36:20;;;;;;;2.78;2.58;;;13.70;84.60;;;;;;4939661;29;20217;-89
2023/04/25 10:38:47;;;;;;;2.85;2.58;;;13.20;85.30;;;;;;4940098;28;20296;-89
2023/04/25 10:41:14;;;;;;;2.65;2.20;;;13.10;87.20;;;;;;4940310;29;20209;-89
2023/04/25 10:43:45;;;;;;;5.75;2.42;;;12.80;85.40;;;;;;4957324;29;20204;-89
2023/04/25 10:46:23;;;;;;;3.03;2.55;;;12.80;86.30;;;;;;4939928;29;20182;-89
2023/04/25 10:48:50;;;;;;;4.63;2.50;;;12.80;86.50;;;;;;4940394;29;20212;-89
2023/04/25 10:51:17;;;;;;;3.45;2.60;;;12.60;86.30;;;;;;4940019;29;20205;-89
2023/04/25 10:53:56;;;;;;;4.28;2.25;;;12.50;87.60;;;;;;4940818;29;20233;-90
2023/04/25 10:56:24;;;;;;;2.55;2.10;;;12.50;86.50;;;;;;4939278;29;20180;-91
2023/04/25 10:58:50;;;;;;;3.20;2.17;;;12.60;86.20;;;;;;4939930;29;20268;-91
2023/04/25 11:01:21;;;;;;;2.92;2.08;;;12.70;85.20;;;;;;4940033;29;20185;-91
2023/04/25 11:03:50;;;;;;;1.70;1.60;;;13.00;85.90;;;;;;4940747;29;20193;-91
2023/04/25 11:06:46;;;;;;;2.20;1.67;;;13.40;83.10;;;;;;4939515;29;20269;-91
2023/04/25 11:09:15;;;;;;;4.00;2.33;;;13.50;79.80;;;;;;4939428;29;20232;-91
2023/04/25 11:11:41;;;;;;;7.70;2.08;;;13.60;80.40;;;;;;4940014;29;20197;-91
2023/04/25 11:14:07;;;;;;;2.38;1.92;;;13.60;81.10;;;;;;4940657;29;20556;-90
2023/04/25 11:16:33;;;;;;;7.35;2.47;;;13.60;79.80;;;;;;4940197;29;20177;-90
2023/04/25 11:18:59;;;;;;;5.82;2.28;;;13.30;80.70;;;;;;4939227;29;20261;-90
2023/04/25 11:21:27;;;;;;;5.82;2.47;;;13.40;81.50;;;;;;4956799;29;20185;-91
2023/04/25 11:23:56;;;;;;;1.90;1.80;;;13.60;82.50;;;;;;4941032;29;20181;-88
2023/04/25 11:26:22;;;;;;;2.72;2.10;;;13.30;80.90;;;;;;4941842;29;20272;-89
2023/04/25 11:29:10;;;;;;;2.33;2.13;;;12.80;82.30;;;;;;4938834;28;20234;-89
2023/04/25 11:31:45;;;;;;;7.90;2.33;;;12.40;83.30;;;;;;4957025;29;20217;-89
2023/04/25 11:34:11;;;;;;;3.17;2.60;;;12.00;85.40;;;;;;4938508;29;20173;-89
2023/04/25 11:36:38;;;;;;;2.17;1.92;;;11.70;85.90;;;;;;4938202;29;20200;-88
2023/04/25 11:39:05;;;;;;;2.30;2.10;;;11.40;85.70;;;;;;4939480;29;20205;-89
2023/04/25 11:41:31;;;;;;;2.38;2.00;;;11.40;86.40;;;;;;4938641;29;20181;-89
2023/04/25 11:44:17;;;;;;;3.70;2.20;;;11.50;86.90;;;;;;4940815;29;20185;-88
2023/04/25 11:46:43;;;;;;;3.17;2.40;;;11.40;85.40;;;;;;4941150;29;20650;-88
2023/04/25 11:49:24;;;;;;;6.32;2.42;;;11.40;86.30;;;;;;4940996;29;20202;-88
2023/04/25 11:51:52;;;;;;;4.50;2.47;;;11.30;86.80;;;;;;4939632;29;20189;-88
2023/04/25 11:54:26;;;;;;;4.70;2.60;;;11.20;86.50;;;;;;4940924;29;20182;-88
2023/04/25 11:56:58;;;;;;;2.92;2.33;;;11.20;84.80;;;;;;4940765;29;20181;-88
2023/04/25 11:59:27;;;;;;;4.32;2.40;;;11.10;86.30;;;;;;4940059;29;20205;-88
2023/04/25 12:01:57;;;;;;;5.97;2.55;;;11.10;89.50;;;;;;4940568;29;20177;-88
2023/04/25 12:04:24;;;;;;;6.05;2.65;;;11.10;89.30;;;;;;4956525;29;20185;-88
2023/04/25 12:06:52;;;;;;;3.15;2.40;;;11.00;90.20;;;;;;4940025;29;20209;-88
2023/04/25 13:03:07;;;;;;;10.07;3.38;;;13.50;78.90;;;;;;2992715;23;20511;-85
2023/04/25 13:05:32;;;;;;;13.55;3.78;;;13.20;78.70;;;;;;4937826;29;20276;-84
2023/04/25 13:07:59;;;;;;;15.50;9.82;;;13.10;80.50;;;;;;4924252;29;20197;-84
2023/04/25 13:10:24;;;;;;;8.10;4.00;;;13.10;79.40;;;;;;4940826;29;20338;-84
2023/04/25 13:12:50;;;;;;;10.48;3.90;;;12.80;79.70;;;;;;4924309;29;20219;-84
2023/04/25 13:15:16;;;;;;;7.65;3.53;;;12.60;80.00;;;;;;4923703;29;20253;-84
2023/04/25 13:17:42;;;;;;;10.95;3.17;;;12.20;81.30;;;;;;4940480;29;20317;-84
2023/04/25 13:20:10;;;;;;;19.90;3.80;;;11.60;83.80;;;;;;4922442;29;20186;-83
2023/04/25 13:22:40;;;;;;;9.82;3.17;;;11.20;85.30;;;;;;4923826;29;20293;-84
2023/04/25 13:25:07;;;;;;;11.73;3.50;;;11.00;85.50;;;;;;4922790;29;20174;-84
2023/04/25 13:27:35;;;;;;;12.40;3.33;;;10.90;85.30;;;;;;4940753;29;20190;-82
2023/04/25 13:30:06;;;;;;;8.95;3.05;;;10.90;83.70;;;;;;4923269;29;20221;-83
2023/04/25 13:32:35;;;;;;;14.57;4.00;;;11.00;82.80;;;;;;4924101;29;20260;-83
2023/04/25 13:35:05;;;;;;;5.53;2.42;;;11.30;82.70;;;;;;4925578;29;20229;-82
2023/04/25 13:37:32;;;;;;;10.05;2.72;;;11.40;80.70;;;;;;4933680;29;20189;-83
2023/04/25 13:40:04;;;;;;;14.32;3.60;;;11.60;79.20;;;;;;4930187;29;20199;-83
2023/04/25 13:42:33;;;;;;;18.98;3.72;;;11.80;79.50;;;;;;4937022;29;20217;-83
2023/04/25 13:44:58;;;;;;;5.85;2.83;;;12.10;78.50;;;;;;4919915;29;20225;-83
2023/04/25 13:47:25;;;;;;;8.55;2.80;;;12.30;78.60;;;;;;4904675;29;20187;-83
2023/04/25 13:49:50;;;;;;;10.65;4.75;;;12.40;78.00;;;;;;4903910;29;20214;-83
2023/04/25 13:52:16;;;;;;;11.52;3.40;;;12.40;76.80;;;;;;4902782;29;20191;-83
2023/04/25 13:54:42;;;;;;;8.77;3.03;;;12.70;76.00;;;;;;4902318;29;20220;-83
2023/04/25 13:57:08;;;;;;;5.97;2.63;;;12.70;75.90;;;;;;4902048;29;20182;-83
2023/04/25 13:59:33;;;;;;;14.05;3.03;;;12.40;73.80;;;;;;4902107;29;20178;-83
2023/04/25 14:01:59;;;;;;;8.60;2.95;;;12.30;74.50;;;;;;4901599;29;20266;-83
2023/04/25 14:04:24;;;;;;;6.10;2.45;;;12.40;73.70;;;;;;4903470;29;20309;-83
2023/04/25 14:06:51;;;;;;;7.20;2.80;;;12.30;71.50;;;;;;4904779;29;20210;-83
2023/04/25 14:09:17;;;;;;;6.45;2.65;;;12.30;74.30;;;;;;4904778;29;20213;-83
2023/04/25 14:11:43;;;;;;;13.02;2.63;;;12.30;71.80;;;;;;4920861;29;20207;-83
2023/04/25 14:14:09;;;;;;;7.53;2.78;;;12.10;70.20;;;;;;4920913;29;20201;-82
2023/04/25 14:16:34;;;;;;;7.80;2.83;;;12.10;70.20;;;;;;4904641;29;20187;-82
2023/04/25 14:19:01;;;;;;;7.80;2.90;;;11.90;73.80;;;;;;4904256;29;20674;-82
2023/04/25 14:21:27;;;;;;;7.97;2.85;;;12.00;73.40;;;;;;4903175;29;20187;-83
2023/04/25 14:23:53;;;;;;;14.05;3.25;;;11.80;70.70;;;;;;4902416;29;20203;-83
2023/04/25 14:26:19;;;;;;;4.18;2.30;;;12.00;73.40;;;;;;4903163;29;20187;-83
2023/04/25 14:28:45;;;;;;;4.60;2.42;;;12.10;74.00;;;;;;4920187;29;20187;-82
2023/04/25 14:31:10;;;;;;;11.93;2.92;;;12.10;71.70;;;;;;4904002;29;20237;-82
2023/04/25 14:33:39;;;;;;;5.50;2.60;;;12.00;72.00;;;;;;4904509;29;20676;-82
2023/04/25 14:36:05;;;;;;;15.93;3.42;;;11.90;70.50;;;;;;4903926;29;20190;-82
2023/04/25 14:38:31;;;;;;;8.60;3.10;;;11.80;69.90;;;;;;4903226;29;20183;-83
2023/04/25 14:40:57;;;;;;;6.85;2.47;;;11.90;72.10;;;;;;4903699;29;20220;-82
2023/04/25 14:43:22;;;;;;;6.82;2.85;;;11.90;72.60;;;;;;4903947;29;20701;-82
2023/04/25 14:45:48;;;;;;;11.60;2.65;;;12.00;70.10;;;;;;4920423;29;20706;-82
2023/04/25 14:48:14;;;;;;;25.92;3.53;;;11.90;72.60;;;;;;4903241;29;20183;-82
2023/04/25 14:50:40;;;;;;;8.65;2.90;;;11.90;73.20;;;;;;4902995;29;20219;-82
2023/04/25 14:53:06;;;;;;;6.63;2.58;;;11.80;69.40;;;;;;4903448;29;20199;-82
2023/04/25 14:55:32;;;;;;;6.25;2.60;;;11.70;69.70;;;;;;4919466;29;20253;-85
2023/04/25 14:57:57;;;;;;;4.43;2.60;;;11.50;70.40;;;;;;4903747;29;20289;-82
2023/04/25 15:00:25;;;;;;;7.45;2.60;;;11.30;71.40;;;;;;4905089;29;20182;-82
2023/04/25 15:02:50;;;;;;;6.28;2.90;;;11.30;75.80;;;;;;4903761;29;20265;-82
2023/04/25 15:05:16;;;;;;;6.18;2.80;;;11.10;73.50;;;;;;4920823;29;20261;-82
2023/04/25 15:07:42;;;;;;;7.85;2.80;;;11.00;76.00;;;;;;4903696;29;20647;-82
2023/04/25 15:10:13;;;;;;;6.70;2.20;;;11.10;75.00;;;;;;4903373;29;20290;-82
2023/04/25 15:12:40;;;;;;;10.45;3.08;;;11.10;73.80;;;;;;4920670;29;20199;-82
2023/04/25 15:15:11;;;;;;;8.05;2.50;;;11.20;74.40;;;;;;4904267;29;20234;-82
2023/04/25 15:17:43;;;;;;;6.57;2.50;;;11.30;73.60;;;;;;4920410;29;20171;-82
2023/04/25 15:20:23;;;;;;;10.48;4.75;;;11.40;71.90;;;;;;4904856;29;20231;-83
2023/04/25 15:22:56;;;;;;;8.95;3.15;;;11.50;71.20;;;;;;4908114;29;20202;-83
2023/04/25 15:25:22;;;;;;;12.70;3.05;;;11.70;71.90;;;;;;4901382;29;20171;-83
2023/04/25 15:27:48;;;;;;;9.13;2.72;;;11.80;71.00;;;;;;4900466;29;20674;-82
2023/04/25 15:30:17;;;;;;;10.95;2.80;;;11.70;70.60;;;;;;4915020;29;20215;-82
2023/04/25 15:32:44;;;;;;;7.65;2.97;;;11.80;72.70;;;;;;4899264;29;20771;-82
2023/04/25 15:35:10;;;;;;;7.28;4.15;;;11.80;70.10;;;;;;4899401;29;20249;-82
2023/04/25 15:37:37;;;;;;;9.63;2.88;;;11.60;71.30;;;;;;4916570;29;20194;-82
2023/04/25 15:40:16;;;;;;;6.55;2.63;;;11.70;72.10;;;;;;4899728;29;20326;-82
2023/04/25 15:42:46;;;;;;;9.40;2.80;;;11.50;71.10;;;;;;4899505;29;20210;-82
2023/04/25 15:45:13;;;;;;;5.20;2.75;;;11.40;71.90;;;;;;4901463;29;20178;-82
2023/04/25 15:47:39;;;;;;;9.43;2.80;;;11.20;71.50;;;;;;4900620;29;20238;-82
2023/04/25 15:50:08;;;;;;;7.07;2.55;;;11.30;74.00;;;;;;4900698;29;20211;-82
2023/04/25 15:52:35;;;;;;;5.05;2.67;;;11.30;73.40;;;;;;4900967;29;20199;-82
2023/04/25 15:55:01;;;;;;;7.80;2.47;;;11.20;73.50;;;;;;4900648;29;20178;-82
2023/04/25 15:57:26;;;;;;;4.68;2.70;;;11.10;72.20;;;;;;4901287;29;20179;-82
2023/04/25 15:59:52;;;;;;;12.13;2.80;;;11.00;73.30;;;;;;4900628;29;20183;-82
2023/04/25 16:02:18;;;;;;;11.25;3.35;;;11.00;73.80;;;;;;4900737;29;20224;-82
2023/04/25 16:04:45;;;;;;;7.45;2.50;;;11.00;72.50;;;;;;4900497;29;20758;-82
2023/04/25 16:07:12;;;;;;;4.97;2.40;;;10.90;72.40;;;;;;4900409;29;20198;-82
2023/04/25 16:09:38;;;;;;;24.85;3.80;;;11.00;74.20;;;;;;4901154;29;20247;-83
2023/04/25 16:12:05;;;;;;;9.18;2.63;;;11.10;74.90;;;;;;4902373;29;20175;-83
2023/04/25 16:25:00;;;;;;;6.03;2.58;;;10.70;71.10;;;;;;4954635;29;20217;-74
2023/04/25 16:27:45;;;;;;;7.43;2.60;;;10.60;72.20;;;;;;4938217;29;20206;-74
2023/04/25 16:30:55;;;;;;;11.90;2.72;;;10.60;73.30;;;;;;4938918;29;20213;-74
2023/04/25 16:33:55;;;;;;;9.57;2.35;;;10.40;72.80;;;;;;4955353;29;20157;-74
2023/04/25 16:36:20;;;;;;;6.32;2.40;;;10.00;72.50;;;;;;4938573;29;20219;-74
2023/04/25 16:38:46;;;;;;;5.15;2.58;;;9.90;73.60;;;;;;4938636;29;20701;-74
2023/04/25 16:41:12;;;;;;;8.57;2.60;;;9.90;72.90;;;;;;4937829;29;20188;-74
2023/04/25 16:43:46;;;;;;;8.02;2.83;;;9.90;72.30;;;;;;4954980;29;20786;-74
2023/04/25 16:46:22;;;;;;;5.75;2.53;;;9.90;72.40;;;;;;4937813;29;20625;-74
2023/04/25 16:48:48;;;;;;;3.33;2.08;;;9.90;73.70;;;;;;4938682;29;20166;-74
2023/04/25 16:51:15;;;;;;;5.53;2.20;;;9.80;73.20;;;;;;4937627;29;20334;-73
2023/04/25 16:53:41;;;;;;;6.68;2.47;;;9.80;75.20;;;;;;4938466;28;20209;-73
2023/04/25 16:56:07;;;;;;;6.88;2.20;;;9.80;75.70;;;;;;4941092;29;20205;-74
2023/04/25 16:58:34;;;;;;;5.95;2.25;;;9.80;76.10;;;;;;4941324;29;20191;-74
2023/04/25 17:01:00;;;;;;;5.93;2.42;;;9.70;76.60;;;;;;4941698;29;20190;-75
2023/04/25 17:03:26;;;;;;;6.05;2.35;;;9.70;76.50;;;;;;4941154;29;20170;-75
2023/04/25 17:05:56;;;;;;;5.47;2.28;;;9.70;76.10;;;;;;4941450;29;20202;-75
2023/04/25 17:08:22;;;;;;;9.63;3.10;;;9.60;76.10;;;;;;4944524;29;20199;-75
2023/04/25 17:10:51;;;;;;;5.70;2.95;;;9.60;76.00;;;;;;4944294;29;20201;-75
2023/04/25 17:13:17;;;;;;;4.80;2.47;;;9.60;77.00;;;;;;4943429;29;20569;-75
2023/04/25 17:15:43;;;;;;;8.93;2.67;;;9.50;76.30;;;;;;4943724;28;20158;-75
2023/04/25 17:18:08;;;;;;;6.13;2.47;;;9.50;76.00;;;;;;4943971;29;20268;-75
2023/04/25 17:20:34;;;;;;;4.63;2.40;;;9.40;76.60;;;;;;4960566;29;20229;-75
2023/04/25 17:23:00;;;;;;;6.57;2.25;;;9.40;77.20;;;;;;4943615;29;20201;-75
2023/04/25 17:25:25;;;;;;;7.53;2.70;;;9.50;76.20;;;;;;4943900;28;20244;-75
2023/04/25 17:27:52;;;;;;;5.45;2.40;;;9.40;77.20;;;;;;4944173;29;20232;-75
2023/04/25 17:30:18;;;;;;;9.52;2.30;;;9.40;77.40;;;;;;4960118;29;20272;-75
2023/04/25 17:32:43;;;;;;;7.30;2.30;;;9.30;79.20;;;;;;4942224;29;20178;-75
2023/04/25 17:35:09;;;;;;;5.25;2.40;;;9.30;78.70;;;;;;4940656;29;20201;-75
2023/04/25 17:37:34;;;;;;;6.40;2.60;;;9.30;79.90;;;;;;4940441;29;20697;-75
2023/04/25 17:40:00;;;;;;;6.57;2.60;;;9.20;80.10;;;;;;4940359;29;20654;-75
2023/04/25 17:42:27;;;;;;;6.93;2.50;;;9.20;80.40;;;;;;4940618;29;20209;-75
2023/04/25 17:44:54;;;;;;;6.60;2.75;;;9.20;80.40;;;;;;4940735;29;20197;-75
2023/04/25 17:47:20;;;;;;;5.90;2.60;;;9.20;80.50;;;;;;4940690;29;20233;-76
2023/04/25 17:49:45;;;;;;;6.25;2.58;;;9.10;81.30;;;;;;4940228;29;20189;-76
2023/04/25 17:52:11;;;;;;;9.45;2.80;;;9.20;80.80;;;;;;4940555;29;20173;-76
2023/04/25 17:54:37;;;;;;;6.50;2.70;;;9.10;80.80;;;;;;4940151;29;20228;-75
2023/04/25 17:57:03;;;;;;;7.63;2.50;;;9.10;81.00;;;;;;4940057;29;20242;-76
2023/04/25 17:59:29;;;;;;;8.20;2.63;;;9.10;80.70;;;;;;4940860;29;20178;-74
2023/04/25 18:01:57;;;;;;;8.15;2.72;;;9.10;79.30;;;;;;4940000;29;20657;-73
2023/04/25 18:04:23;;;;;;;7.40;2.63;;;8.90;78.80;;;;;;4957754;29;20264;-73
2023/04/25 18:06:48;;;;;;;13.07;2.65;;;9.00;80.30;;;;;;4940672;29;20284;-75
2023/04/25 18:09:17;;;;;;;5.50;2.38;;;8.90;81.30;;;;;;4942631;29;20210;-76
2023/04/25 18:11:46;;;;;;;6.18;2.65;;;8.80;81.40;;;;;;4939143;29;20688;-75
2023/04/25 18:14:13;;;;;;;5.35;2.63;;;8.80;82.50;;;;;;4938810;29;20167;-75
2023/04/25 18:16:52;;;;;;;7.78;2.63;;;8.70;82.70;;;;;;4940083;29;20198;-75
2023/04/25 18:19:22;;;;;;;9.73;2.97;;;8.70;82.70;;;;;;4939978;29;20173;-75
2023/04/25 18:21:48;;;;;;;5.00;2.67;;;8.70;82.40;;;;;;4942175;29;20535;-75
2023/04/25 18:24:19;;;;;;;4.13;2.20;;;8.60;82.30;;;;;;4959159;29;20285;-75
2023/04/25 18:26:46;;;;;;;6.28;2.58;;;8.40;83.10;;;;;;4959584;28;20647;-75
2023/04/25 18:29:12;;;;;;;8.10;2.70;;;8.30;83.50;;;;;;4941565;29;20197;-76